Kingsville Naval Air Station, Texas
Current Conditions -  °F | °C
As of 4:56 AM on Monday 20 Oct 2014 (Local Time) from KNQI Reporting Station
Clear Clear  
Wind Chill: 70°   Ceiling: Unl
Heat Index: 70°   Visibility: 10mi
Dew Point: 70°   Wind: 6mph
Humidity: 100%   Direction: 360°N
Pressure: 29.93"   Gusts: NA
Location:  27.4762°N, 97.7965°W
Report Text: KNQI 200956Z AUTO 36005KT 10SM CLR 21/21 A2993 RMK AO2 SLP130 T02110211
Loading
Personal Weather Stations






























Interactive Weather Map
Tropical Storm Tracking
New forecast layout! Learn more

10-Day Weather Forecast

Advertisements
Track Severe Weather on mobile